sensor_id;sensor_type;location;lat;lon;timestamp;P1;durP1;ratioP1;P2;durP2;ratioP2
13208;SDS011;6669;42.678;23.332;2023-04-01T00:00:34;8.90;;;4.75;;
13208;SDS011;6669;42.678;23.332;2023-04-01T00:03:02;10.70;;;5.90;;
13208;SDS011;6669;42.678;23.332;2023-04-01T00:05:30;11.45;;;6.45;;
13208;SDS011;6669;42.678;23.332;2023-04-01T00:07:58;11.80;;;6.80;;
13208;SDS011;6669;42.678;23.332;2023-04-01T00:10:27;13.17;;;6.63;;
13208;SDS011;6669;42.678;23.332;2023-04-01T00:12:55;9.53;;;6.90;;
13208;SDS011;6669;42.678;23.332;2023-04-01T00:15:23;13.38;;;7.60;;
13208;SDS011;6669;42.678;23.332;2023-04-01T00:17:52;12.50;;;7.30;;
13208;SDS011;6669;42.678;23.332;2023-04-01T00:20:20;11.03;;;7.40;;
13208;SDS011;6669;42.678;23.332;2023-04-01T00:22:50;8.57;;;7.20;;
13208;SDS011;6669;42.678;23.332;2023-04-01T00:25:18;11.55;;;7.53;;
13208;SDS011;6669;42.678;23.332;2023-04-01T00:27:46;10.63;;;7.50;;
13208;SDS011;6669;42.678;23.332;2023-04-01T00:30:14;9.80;;;7.00;;
13208;SDS011;6669;42.678;23.332;2023-04-01T00:32:42;14.47;;;8.13;;
13208;SDS011;6669;42.678;23.332;2023-04-01T00:35:12;11.63;;;7.23;;
13208;SDS011;6669;42.678;23.332;2023-04-01T00:37:40;12.97;;;8.10;;
13208;SDS011;6669;42.678;23.332;2023-04-01T00:40:11;13.93;;;7.77;;
13208;SDS011;6669;42.678;23.332;2023-04-01T00:42:50;11.40;;;7.70;;
13208;SDS011;6669;42.678;23.332;2023-04-01T00:45:26;10.00;;;7.23;;
13208;SDS011;6669;42.678;23.332;2023-04-01T00:47:58;10.47;;;7.17;;
13208;SDS011;6669;42.678;23.332;2023-04-01T00:50:30;11.93;;;7.27;;
13208;SDS011;6669;42.678;23.332;2023-04-01T00:53:00;12.43;;;7.27;;
13208;SDS011;6669;42.678;23.332;2023-04-01T00:55:30;11.50;;;7.03;;
13208;SDS011;6669;42.678;23.332;2023-04-01T00:58:02;9.93;;;6.50;;
13208;SDS011;6669;42.678;23.332;2023-04-01T01:00:33;8.07;;;6.00;;
13208;SDS011;6669;42.678;23.332;2023-04-01T01:03:03;9.10;;;6.07;;
13208;SDS011;6669;42.678;23.332;2023-04-01T01:05:35;9.10;;;6.33;;
13208;SDS011;6669;42.678;23.332;2023-04-01T01:08:15;10.53;;;6.13;;
13208;SDS011;6669;42.678;23.332;2023-04-01T01:10:50;9.97;;;5.80;;
13208;SDS011;6669;42.678;23.332;2023-04-01T01:13:20;8.10;;;6.13;;
13208;SDS011;6669;42.678;23.332;2023-04-01T01:15:54;10.90;;;5.63;;
13208;SDS011;6669;42.678;23.332;2023-04-01T01:18:27;8.97;;;5.57;;
13208;SDS011;6669;42.678;23.332;2023-04-01T01:27:01;7.87;;;5.10;;
13208;SDS011;6669;42.678;23.332;2023-04-01T01:32:47;8.37;;;5.13;;
13208;SDS011;6669;42.678;23.332;2023-04-01T01:35:26;6.00;;;4.17;;
13208;SDS011;6669;42.678;23.332;2023-04-01T01:37:59;7.97;;;4.40;;
13208;SDS011;6669;42.678;23.332;2023-04-01T01:40:31;5.73;;;4.33;;
13208;SDS011;6669;42.678;23.332;2023-04-01T01:43:09;9.33;;;4.80;;
13208;SDS011;6669;42.678;23.332;2023-04-01T01:45:40;6.80;;;4.50;;
13208;SDS011;6669;42.678;23.332;2023-04-01T01:48:13;5.07;;;4.20;;
13208;SDS011;6669;42.678;23.332;2023-04-01T01:50:45;6.97;;;4.13;;
13208;SDS011;6669;42.678;23.332;2023-04-01T01:53:15;8.57;;;4.00;;
13208;SDS011;6669;42.678;23.332;2023-04-01T01:55:44;7.50;;;4.00;;
13208;SDS011;6669;42.678;23.332;2023-04-01T01:58:15;7.90;;;3.80;;
13208;SDS011;6669;42.678;23.332;2023-04-01T02:00:46;5.73;;;3.20;;
13208;SDS011;6669;42.678;23.332;2023-04-01T02:03:17;6.60;;;4.03;;
13208;SDS011;6669;42.678;23.332;2023-04-01T02:05:50;8.23;;;3.63;;
13208;SDS011;6669;42.678;23.332;2023-04-01T02:08:21;6.07;;;3.47;;
13208;SDS011;6669;42.678;23.332;2023-04-01T02:10:55;5.77;;;3.03;;
13208;SDS011;6669;42.678;23.332;2023-04-01T02:13:27;4.95;;;3.05;;
13208;SDS011;6669;42.678;23.332;2023-04-01T02:16:00;4.90;;;3.53;;
13208;SDS011;6669;42.678;23.332;2023-04-01T02:18:33;7.17;;;3.30;;
13208;SDS011;6669;42.678;23.332;2023-04-01T02:21:05;5.83;;;3.57;;
13208;SDS011;6669;42.678;23.332;2023-04-01T02:23:35;4.23;;;3.63;;
13208;SDS011;6669;42.678;23.332;2023-04-01T02:26:04;6.27;;;3.60;;
13208;SDS011;6669;42.678;23.332;2023-04-01T02:28:34;7.73;;;3.73;;
13208;SDS011;6669;42.678;23.332;2023-04-01T02:31:06;5.77;;;3.33;;
13208;SDS011;6669;42.678;23.332;2023-04-01T02:33:36;5.17;;;3.70;;
13208;SDS011;6669;42.678;23.332;2023-04-01T02:36:11;6.17;;;3.43;;
13208;SDS011;6669;42.678;23.332;2023-04-01T02:38:40;5.85;;;3.92;;
13208;SDS011;6669;42.678;23.332;2023-04-01T02:41:10;7.30;;;3.55;;
13208;SDS011;6669;42.678;23.332;2023-04-01T02:43:38;5.13;;;3.10;;
13208;SDS011;6669;42.678;23.332;2023-04-01T02:46:06;4.43;;;3.43;;
13208;SDS011;6669;42.678;23.332;2023-04-01T02:48:34;5.80;;;3.47;;
13208;SDS011;6669;42.678;23.332;2023-04-01T02:51:02;7.55;;;4.22;;
13208;SDS011;6669;42.678;23.332;2023-04-01T02:53:32;5.00;;;3.78;;
13208;SDS011;6669;42.678;23.332;2023-04-01T02:56:00;4.65;;;3.50;;
13208;SDS011;6669;42.678;23.332;2023-04-01T02:58:28;4.60;;;3.38;;
13208;SDS011;6669;42.678;23.332;2023-04-01T03:00:56;6.45;;;3.67;;
13208;SDS011;6669;42.678;23.332;2023-04-01T03:03:24;9.60;;;3.90;;
13208;SDS011;6669;42.678;23.332;2023-04-01T03:05:52;5.82;;;3.80;;
13208;SDS011;6669;42.678;23.332;2023-04-01T03:08:22;7.57;;;4.80;;
13208;SDS011;6669;42.678;23.332;2023-04-01T03:10:51;6.90;;;4.63;;
13208;SDS011;6669;42.678;23.332;2023-04-01T03:13:19;9.10;;;3.90;;
13208;SDS011;6669;42.678;23.332;2023-04-01T03:15:47;11.23;;;4.80;;
13208;SDS011;6669;42.678;23.332;2023-04-01T03:18:15;6.97;;;4.80;;
13208;SDS011;6669;42.678;23.332;2023-04-01T03:20:43;8.10;;;5.00;;
13208;SDS011;6669;42.678;23.332;2023-04-01T03:23:11;7.65;;;4.85;;
13208;SDS011;6669;42.678;23.332;2023-04-01T03:25:39;9.20;;;5.10;;
13208;SDS011;6669;42.678;23.332;2023-04-01T03:28:09;11.33;;;5.37;;
13208;SDS011;6669;42.678;23.332;2023-04-01T03:30:37;7.18;;;5.57;;
13208;SDS011;6669;42.678;23.332;2023-04-01T03:33:04;9.03;;;5.30;;
13208;SDS011;6669;42.678;23.332;2023-04-01T03:35:33;8.60;;;5.50;;
13208;SDS011;6669;42.678;23.332;2023-04-01T03:38:02;8.60;;;5.30;;
13208;SDS011;6669;42.678;23.332;2023-04-01T03:40:30;9.93;;;5.77;;
13208;SDS011;6669;42.678;23.332;2023-04-01T03:42:59;8.17;;;5.07;;
13208;SDS011;6669;42.678;23.332;2023-04-01T03:45:28;9.03;;;5.40;;
13208;SDS011;6669;42.678;23.332;2023-04-01T03:47:57;11.57;;;5.37;;
13208;SDS011;6669;42.678;23.332;2023-04-01T03:50:25;7.30;;;5.03;;
13208;SDS011;6669;42.678;23.332;2023-04-01T03:52:54;7.28;;;5.00;;
13208;SDS011;6669;42.678;23.332;2023-04-01T03:55:21;6.68;;;4.78;;
13208;SDS011;6669;42.678;23.332;2023-04-01T03:57:50;10.27;;;4.95;;
13208;SDS011;6669;42.678;23.332;2023-04-01T04:00:18;7.65;;;4.43;;
13208;SDS011;6669;42.678;23.332;2023-04-01T04:02:48;7.28;;;4.70;;
13208;SDS011;6669;42.678;23.332;2023-04-01T04:05:16;7.47;;;4.95;;
13208;SDS011;6669;42.678;23.332;2023-04-01T04:07:44;7.57;;;4.85;;
13208;SDS011;6669;42.678;23.332;2023-04-01T04:10:12;10.48;;;5.10;;
13208;SDS011;6669;42.678;23.332;2023-04-01T04:12:40;11.07;;;4.88;;
13208;SDS011;6669;42.678;23.332;2023-04-01T04:15:09;9.57;;;4.57;;
13208;SDS011;6669;42.678;23.332;2023-04-01T04:17:37;10.40;;;5.15;;
13208;SDS011;6669;42.678;23.332;2023-04-01T04:20:07;10.60;;;7.30;;
13208;SDS011;6669;42.678;23.332;2023-04-01T04:22:36;7.80;;;4.28;;
13208;SDS011;6669;42.678;23.332;2023-04-01T04:25:04;8.40;;;5.00;;
13208;SDS011;6669;42.678;23.332;2023-04-01T04:27:33;10.57;;;6.53;;
13208;SDS011;6669;42.678;23.332;2023-04-01T04:30:01;6.38;;;4.30;;
13208;SDS011;6669;42.678;23.332;2023-04-01T04:32:30;8.57;;;4.32;;
13208;SDS011;6669;42.678;23.332;2023-04-01T04:34:58;7.83;;;3.80;;
13208;SDS011;6669;42.678;23.332;2023-04-01T04:37:27;8.43;;;3.73;;
13208;SDS011;6669;42.678;23.332;2023-04-01T04:39:55;6.40;;;3.77;;
13208;SDS011;6669;42.678;23.332;2023-04-01T04:42:23;5.72;;;3.60;;
13208;SDS011;6669;42.678;23.332;2023-04-01T04:44:51;6.28;;;4.63;;
13208;SDS011;6669;42.678;23.332;2023-04-01T04:47:19;8.43;;;3.40;;
13208;SDS011;6669;42.678;23.332;2023-04-01T04:49:47;7.13;;;3.93;;
13208;SDS011;6669;42.678;23.332;2023-04-01T04:52:15;5.57;;;4.43;;
13208;SDS011;6669;42.678;23.332;2023-04-01T04:54:44;6.32;;;4.35;;
13208;SDS011;6669;42.678;23.332;2023-04-01T04:57:12;5.13;;;4.20;;
13208;SDS011;6669;42.678;23.332;2023-04-01T04:59:40;6.43;;;4.60;;
13208;SDS011;6669;42.678;23.332;2023-04-01T05:02:08;8.77;;;4.20;;
13208;SDS011;6669;42.678;23.332;2023-04-01T05:04:36;5.87;;;4.70;;
13208;SDS011;6669;42.678;23.332;2023-04-01T05:07:04;9.43;;;4.87;;
13208;SDS011;6669;42.678;23.332;2023-04-01T05:09:33;7.70;;;5.23;;
13208;SDS011;6669;42.678;23.332;2023-04-01T05:12:02;6.00;;;4.10;;
13208;SDS011;6669;42.678;23.332;2023-04-01T05:14:30;9.83;;;4.50;;
13208;SDS011;6669;42.678;23.332;2023-04-01T05:16:58;7.40;;;4.17;;
13208;SDS011;6669;42.678;23.332;2023-04-01T05:19:26;6.87;;;4.53;;
13208;SDS011;6669;42.678;23.332;2023-04-01T05:21:54;6.27;;;4.50;;
13208;SDS011;6669;42.678;23.332;2023-04-01T05:24:22;9.97;;;4.83;;
13208;SDS011;6669;42.678;23.332;2023-04-01T05:26:50;6.73;;;4.10;;
13208;SDS011;6669;42.678;23.332;2023-04-01T05:29:21;6.90;;;4.23;;
13208;SDS011;6669;42.678;23.332;2023-04-01T05:31:49;4.53;;;4.07;;
13208;SDS011;6669;42.678;23.332;2023-04-01T05:34:17;5.00;;;3.73;;
13208;SDS011;6669;42.678;23.332;2023-04-01T05:36:45;4.33;;;3.37;;
13208;SDS011;6669;42.678;23.332;2023-04-01T05:39:14;7.87;;;3.90;;
13208;SDS011;6669;42.678;23.332;2023-04-01T05:41:42;7.47;;;3.67;;
13208;SDS011;6669;42.678;23.332;2023-04-01T05:44:10;6.40;;;3.93;;
13208;SDS011;6669;42.678;23.332;2023-04-01T05:46:40;8.40;;;3.93;;
13208;SDS011;6669;42.678;23.332;2023-04-01T05:49:09;6.00;;;3.65;;
13208;SDS011;6669;42.678;23.332;2023-04-01T05:51:37;6.43;;;3.17;;
13208;SDS011;6669;42.678;23.332;2023-04-01T05:54:05;5.25;;;3.50;;
13208;SDS011;6669;42.678;23.332;2023-04-01T05:56:33;21.73;;;16.77;;
13208;SDS011;6669;42.678;23.332;2023-04-01T05:59:01;5.00;;;3.92;;
13208;SDS011;6669;42.678;23.332;2023-04-01T06:01:30;5.93;;;3.53;;
13208;SDS011;6669;42.678;23.332;2023-04-01T06:03:59;4.20;;;3.30;;
13208;SDS011;6669;42.678;23.332;2023-04-01T06:06:27;4.45;;;3.30;;
13208;SDS011;6669;42.678;23.332;2023-04-01T06:08:57;8.80;;;5.00;;
13208;SDS011;6669;42.678;23.332;2023-04-01T06:11:31;6.30;;;3.20;;
13208;SDS011;6669;42.678;23.332;2023-04-01T06:14:10;5.30;;;3.35;;
13208;SDS011;6669;42.678;23.332;2023-04-01T06:16:49;4.78;;;2.63;;
13208;SDS011;6669;42.678;23.332;2023-04-01T06:19:32;3.95;;;2.53;;
13208;SDS011;6669;42.678;23.332;2023-04-01T06:22:27;3.47;;;2.40;;
13208;SDS011;6669;42.678;23.332;2023-04-01T06:25:17;7.80;;;5.45;;
13208;SDS011;6669;42.678;23.332;2023-04-01T06:28:13;3.53;;;3.05;;
13208;SDS011;6669;42.678;23.332;2023-04-01T06:31:00;6.63;;;2.65;;
13208;SDS011;6669;42.678;23.332;2023-04-01T06:33:42;4.45;;;2.90;;
13208;SDS011;6669;42.678;23.332;2023-04-01T06:36:25;8.43;;;2.80;;
13208;SDS011;6669;42.678;23.332;2023-04-01T06:42:17;5.57;;;3.03;;
13208;SDS011;6669;42.678;23.332;2023-04-01T06:44:55;4.10;;;2.85;;
13208;SDS011;6669;42.678;23.332;2023-04-01T06:47:36;7.82;;;3.22;;
13208;SDS011;6669;42.678;23.332;2023-04-01T06:50:16;4.10;;;2.92;;
13208;SDS011;6669;42.678;23.332;2023-04-01T06:52:53;5.47;;;3.03;;
13208;SDS011;6669;42.678;23.332;2023-04-01T06:55:29;5.22;;;3.25;;
13208;SDS011;6669;42.678;23.332;2023-04-01T06:58:04;4.32;;;3.17;;
13208;SDS011;6669;42.678;23.332;2023-04-01T07:00:37;5.60;;;3.95;;
13208;SDS011;6669;42.678;23.332;2023-04-01T07:03:13;5.38;;;2.75;;
13208;SDS011;6669;42.678;23.332;2023-04-01T07:05:47;5.05;;;3.88;;
13208;SDS011;6669;42.678;23.332;2023-04-01T07:08:19;4.40;;;3.17;;
13208;SDS011;6669;42.678;23.332;2023-04-01T07:10:51;3.38;;;2.55;;
13208;SDS011;6669;42.678;23.332;2023-04-01T07:13:24;4.18;;;2.85;;
13208;SDS011;6669;42.678;23.332;2023-04-01T07:15:56;5.00;;;3.30;;
13208;SDS011;6669;42.678;23.332;2023-04-01T07:18:30;10.23;;;6.82;;
13208;SDS011;6669;42.678;23.332;2023-04-01T07:21:04;6.95;;;4.75;;
13208;SDS011;6669;42.678;23.332;2023-04-01T07:23:40;9.65;;;4.85;;
13208;SDS011;6669;42.678;23.332;2023-04-01T07:26:14;5.57;;;3.53;;
13208;SDS011;6669;42.678;23.332;2023-04-01T07:28:45;6.82;;;3.42;;
13208;SDS011;6669;42.678;23.332;2023-04-01T07:31:15;4.03;;;3.20;;
13208;SDS011;6669;42.678;23.332;2023-04-01T07:33:52;4.50;;;3.08;;
13208;SDS011;6669;42.678;23.332;2023-04-01T07:36:28;3.75;;;3.00;;
13208;SDS011;6669;42.678;23.332;2023-04-01T07:39:07;6.75;;;2.88;;
13208;SDS011;6669;42.678;23.332;2023-04-01T07:41:49;5.18;;;3.67;;
13208;SDS011;6669;42.678;23.332;2023-04-01T07:44:25;7.57;;;3.40;;
13208;SDS011;6669;42.678;23.332;2023-04-01T07:47:05;8.60;;;3.45;;
13208;SDS011;6669;42.678;23.332;2023-04-01T07:49:47;5.15;;;3.30;;
13208;SDS011;6669;42.678;23.332;2023-04-01T07:52:26;5.63;;;3.10;;
13208;SDS011;6669;42.678;23.332;2023-04-01T07:55:04;6.38;;;3.25;;
13208;SDS011;6669;42.678;23.332;2023-04-01T07:57:38;6.00;;;4.38;;
13208;SDS011;6669;42.678;23.332;2023-04-01T08:00:16;7.50;;;3.45;;
13208;SDS011;6669;42.678;23.332;2023-04-01T08:02:51;4.53;;;3.20;;
13208;SDS011;6669;42.678;23.332;2023-04-01T08:05:40;7.32;;;3.50;;
13208;SDS011;6669;42.678;23.332;2023-04-01T08:08:18;4.90;;;3.38;;
13208;SDS011;6669;42.678;23.332;2023-04-01T08:10:54;7.63;;;3.58;;
13208;SDS011;6669;42.678;23.332;2023-04-01T08:13:33;5.85;;;3.50;;
13208;SDS011;6669;42.678;23.332;2023-04-01T08:16:09;5.93;;;3.47;;
13208;SDS011;6669;42.678;23.332;2023-04-01T08:18:44;9.27;;;6.65;;
13208;SDS011;6669;42.678;23.332;2023-04-01T08:21:20;7.28;;;4.80;;
13208;SDS011;6669;42.678;23.332;2023-04-01T08:23:51;5.57;;;3.90;;
13208;SDS011;6669;42.678;23.332;2023-04-01T08:26:26;5.85;;;3.50;;
13208;SDS011;6669;42.678;23.332;2023-04-01T08:29:04;5.28;;;2.92;;
13208;SDS011;6669;42.678;23.332;2023-04-01T08:31:38;4.18;;;3.13;;
13208;SDS011;6669;42.678;23.332;2023-04-01T08:34:12;4.85;;;3.28;;
13208;SDS011;6669;42.678;23.332;2023-04-01T08:36:45;5.30;;;3.05;;
13208;SDS011;6669;42.678;23.332;2023-04-01T08:39:21;9.27;;;3.60;;
13208;SDS011;6669;42.678;23.332;2023-04-01T08:45:11;5.93;;;3.30;;
13208;SDS011;6669;42.678;23.332;2023-04-01T08:48:05;4.10;;;2.90;;
13208;SDS011;6669;42.678;23.332;2023-04-01T08:53:59;6.45;;;4.32;;
13208;SDS011;6669;42.678;23.332;2023-04-01T08:56:41;5.97;;;3.05;;
13208;SDS011;6669;42.678;23.332;2023-04-01T08:59:37;3.70;;;3.10;;
13208;SDS011;6669;42.678;23.332;2023-04-01T09:05:36;6.90;;;2.70;;
13208;SDS011;6669;42.678;23.332;2023-04-01T09:08:27;2.95;;;2.60;;
13208;SDS011;6669;42.678;23.332;2023-04-01T09:11:04;2.88;;;2.40;;
13208;SDS011;6669;42.678;23.332;2023-04-01T09:13:39;7.45;;;2.53;;
13208;SDS011;6669;42.678;23.332;2023-04-01T09:16:21;4.57;;;2.33;;
13208;SDS011;6669;42.678;23.332;2023-04-01T09:22:13;3.53;;;3.05;;
13208;SDS011;6669;42.678;23.332;2023-04-01T09:25:03;4.50;;;2.38;;
13208;SDS011;6669;42.678;23.332;2023-04-01T09:27:44;7.22;;;4.85;;
13208;SDS011;6669;42.678;23.332;2023-04-01T09:36:20;5.05;;;2.35;;
13208;SDS011;6669;42.678;23.332;2023-04-01T09:39:11;3.80;;;2.10;;
13208;SDS011;6669;42.678;23.332;2023-04-01T09:41:54;4.47;;;2.30;;
13208;SDS011;6669;42.678;23.332;2023-04-01T09:44:35;5.65;;;2.10;;
13208;SDS011;6669;42.678;23.332;2023-04-01T09:47:10;3.72;;;2.20;;
13208;SDS011;6669;42.678;23.332;2023-04-01T09:49:55;3.50;;;2.55;;
13208;SDS011;6669;42.678;23.332;2023-04-01T09:52:41;4.05;;;2.25;;
13208;SDS011;6669;42.678;23.332;2023-04-01T09:55:21;4.13;;;2.33;;
13208;SDS011;6669;42.678;23.332;2023-04-01T10:07:30;4.35;;;2.47;;
13208;SDS011;6669;42.678;23.332;2023-04-01T10:13:33;5.30;;;2.85;;
13208;SDS011;6669;42.678;23.332;2023-04-01T10:16:31;3.08;;;2.50;;
13208;SDS011;6669;42.678;23.332;2023-04-01T10:22:37;6.25;;;2.35;;
13208;SDS011;6669;42.678;23.332;2023-04-01T10:25:34;3.38;;;2.40;;
13208;SDS011;6669;42.678;23.332;2023-04-01T10:28:30;2.97;;;2.13;;
13208;SDS011;6669;42.678;23.332;2023-04-01T10:31:42;5.90;;;2.40;;
13208;SDS011;6669;42.678;23.332;2023-04-01T10:34:55;5.28;;;2.45;;
13208;SDS011;6669;42.678;23.332;2023-04-01T10:41:09;4.07;;;2.25;;
13208;SDS011;6669;42.678;23.332;2023-04-01T10:56:53;6.15;;;2.17;;
13208;SDS011;6669;42.678;23.332;2023-04-01T10:59:47;5.30;;;2.63;;
13208;SDS011;6669;42.678;23.332;2023-04-01T11:06:28;3.03;;;2.15;;
13208;SDS011;6669;42.678;23.332;2023-04-01T11:12:36;6.22;;;3.42;;
13208;SDS011;6669;42.678;23.332;2023-04-01T11:21:43;5.88;;;2.80;;
13208;SDS011;6669;42.678;23.332;2023-04-01T11:24:32;3.67;;;2.60;;
13208;SDS011;6669;42.678;23.332;2023-04-01T11:27:25;7.15;;;3.08;;
13208;SDS011;6669;42.678;23.332;2023-04-01T11:30:14;6.70;;;2.88;;
13208;SDS011;6669;42.678;23.332;2023-04-01T11:32:50;2.83;;;1.85;;
13208;SDS011;6669;42.678;23.332;2023-04-01T11:35:32;4.38;;;1.85;;
13208;SDS011;6669;42.678;23.332;2023-04-01T11:38:15;7.25;;;2.58;;
13208;SDS011;6669;42.678;23.332;2023-04-01T11:40:54;3.08;;;1.45;;
13208;SDS011;6669;42.678;23.332;2023-04-01T11:43:29;3.28;;;2.00;;
13208;SDS011;6669;42.678;23.332;2023-04-01T11:46:03;5.82;;;1.67;;
13208;SDS011;6669;42.678;23.332;2023-04-01T11:48:43;2.90;;;1.95;;
13208;SDS011;6669;42.678;23.332;2023-04-01T11:51:33;4.15;;;1.52;;
13208;SDS011;6669;42.678;23.332;2023-04-01T11:54:28;3.30;;;1.95;;
13208;SDS011;6669;42.678;23.332;2023-04-01T11:57:15;3.47;;;2.00;;
13208;SDS011;6669;42.678;23.332;2023-04-01T12:00:02;1.53;;;1.40;;
13208;SDS011;6669;42.678;23.332;2023-04-01T12:03:02;3.43;;;2.07;;
13208;SDS011;6669;42.678;23.332;2023-04-01T12:05:46;3.43;;;2.00;;
13208;SDS011;6669;42.678;23.332;2023-04-01T12:08:21;2.30;;;1.90;;
13208;SDS011;6669;42.678;23.332;2023-04-01T12:10:59;5.63;;;2.27;;
13208;SDS011;6669;42.678;23.332;2023-04-01T12:13:35;3.43;;;2.10;;
13208;SDS011;6669;42.678;23.332;2023-04-01T12:16:21;2.70;;;2.03;;
13208;SDS011;6669;42.678;23.332;2023-04-01T12:18:59;5.33;;;2.50;;
13208;SDS011;6669;42.678;23.332;2023-04-01T12:21:35;6.03;;;2.77;;
13208;SDS011;6669;42.678;23.332;2023-04-01T12:24:36;4.93;;;2.73;;
13208;SDS011;6669;42.678;23.332;2023-04-01T12:27:17;3.67;;;2.83;;
13208;SDS011;6669;42.678;23.332;2023-04-01T12:30:00;3.70;;;2.83;;
13208;SDS011;6669;42.678;23.332;2023-04-01T12:32:59;5.97;;;3.37;;
13208;SDS011;6669;42.678;23.332;2023-04-01T12:35:43;4.85;;;2.97;;
13208;SDS011;6669;42.678;23.332;2023-04-01T12:38:25;7.25;;;2.92;;
13208;SDS011;6669;42.678;23.332;2023-04-01T12:41:07;3.10;;;2.80;;
13208;SDS011;6669;42.678;23.332;2023-04-01T12:46:58;2.60;;;2.40;;
13208;SDS011;6669;42.678;23.332;2023-04-01T12:49:44;3.53;;;2.53;;
13208;SDS011;6669;42.678;23.332;2023-04-01T12:52:25;4.10;;;2.70;;
13208;SDS011;6669;42.678;23.332;2023-04-01T12:55:30;2.67;;;2.47;;
13208;SDS011;6669;42.678;23.332;2023-04-01T12:58:11;4.03;;;2.80;;
13208;SDS011;6669;42.678;23.332;2023-04-01T13:01:02;3.25;;;2.83;;
13208;SDS011;6669;42.678;23.332;2023-04-01T13:03:50;3.53;;;2.58;;
13208;SDS011;6669;42.678;23.332;2023-04-01T13:06:33;6.60;;;5.30;;
13208;SDS011;6669;42.678;23.332;2023-04-01T13:09:16;5.90;;;2.85;;
13208;SDS011;6669;42.678;23.332;2023-04-01T13:11:56;2.53;;;2.20;;
13208;SDS011;6669;42.678;23.332;2023-04-01T13:14:45;4.03;;;2.58;;
13208;SDS011;6669;42.678;23.332;2023-04-01T13:17:33;3.88;;;2.75;;
13208;SDS011;6669;42.678;23.332;2023-04-01T13:20:12;2.17;;;1.95;;
13208;SDS011;6669;42.678;23.332;2023-04-01T13:22:51;3.83;;;2.17;;
13208;SDS011;6669;42.678;23.332;2023-04-01T13:25:29;4.55;;;2.60;;
13208;SDS011;6669;42.678;23.332;2023-04-01T13:28:06;3.03;;;2.60;;
13208;SDS011;6669;42.678;23.332;2023-04-01T13:30:43;2.83;;;2.33;;
13208;SDS011;6669;42.678;23.332;2023-04-01T13:33:19;3.90;;;2.28;;
13208;SDS011;6669;42.678;23.332;2023-04-01T13:35:58;2.92;;;2.15;;
13208;SDS011;6669;42.678;23.332;2023-04-01T13:38:56;5.97;;;2.25;;
13208;SDS011;6669;42.678;23.332;2023-04-01T13:41:42;4.97;;;3.33;;
13208;SDS011;6669;42.678;23.332;2023-04-01T13:44:20;2.95;;;2.30;;
13208;SDS011;6669;42.678;23.332;2023-04-01T13:47:00;4.43;;;2.33;;
13208;SDS011;6669;42.678;23.332;2023-04-01T13:49:42;4.03;;;2.10;;
13208;SDS011;6669;42.678;23.332;2023-04-01T13:52:30;2.92;;;2.10;;
13208;SDS011;6669;42.678;23.332;2023-04-01T13:55:22;2.85;;;1.90;;
13208;SDS011;6669;42.678;23.332;2023-04-01T13:58:19;2.78;;;2.35;;
13208;SDS011;6669;42.678;23.332;2023-04-01T14:00:54;2.90;;;2.17;;
13208;SDS011;6669;42.678;23.332;2023-04-01T14:03:32;2.00;;;1.80;;
13208;SDS011;6669;42.678;23.332;2023-04-01T14:06:13;3.72;;;2.50;;
13208;SDS011;6669;42.678;23.332;2023-04-01T14:08:51;4.07;;;2.25;;
13208;SDS011;6669;42.678;23.332;2023-04-01T14:11:33;3.30;;;3.00;;
13208;SDS011;6669;42.678;23.332;2023-04-01T14:14:11;5.05;;;3.33;;
13208;SDS011;6669;42.678;23.332;2023-04-01T14:16:55;5.10;;;3.17;;
13208;SDS011;6669;42.678;23.332;2023-04-01T14:23:12;4.22;;;3.00;;
13208;SDS011;6669;42.678;23.332;2023-04-01T14:26:03;6.07;;;3.13;;
13208;SDS011;6669;42.678;23.332;2023-04-01T14:28:43;3.33;;;2.72;;
13208;SDS011;6669;42.678;23.332;2023-04-01T14:31:25;3.78;;;2.40;;
13208;SDS011;6669;42.678;23.332;2023-04-01T14:34:05;3.15;;;2.35;;
13208;SDS011;6669;42.678;23.332;2023-04-01T14:36:53;3.92;;;2.50;;
13208;SDS011;6669;42.678;23.332;2023-04-01T14:39:51;4.97;;;2.40;;
13208;SDS011;6669;42.678;23.332;2023-04-01T14:42:54;7.68;;;3.42;;
13208;SDS011;6669;42.678;23.332;2023-04-01T14:48:32;3.17;;;2.70;;
13208;SDS011;6669;42.678;23.332;2023-04-01T14:51:08;3.35;;;2.60;;
13208;SDS011;6669;42.678;23.332;2023-04-01T14:53:41;4.82;;;2.88;;
13208;SDS011;6669;42.678;23.332;2023-04-01T14:56:34;4.18;;;2.15;;
13208;SDS011;6669;42.678;23.332;2023-04-01T14:59:04;3.00;;;1.85;;
13208;SDS011;6669;42.678;23.332;2023-04-01T15:01:40;3.40;;;1.75;;
13208;SDS011;6669;42.678;23.332;2023-04-01T15:04:32;2.88;;;1.58;;
13208;SDS011;6669;42.678;23.332;2023-04-01T15:07:15;2.47;;;2.00;;
13208;SDS011;6669;42.678;23.332;2023-04-01T15:09:53;2.47;;;1.70;;
13208;SDS011;6669;42.678;23.332;2023-04-01T15:12:34;5.32;;;2.20;;
13208;SDS011;6669;42.678;23.332;2023-04-01T15:15:17;6.15;;;2.42;;
13208;SDS011;6669;42.678;23.332;2023-04-01T15:18:05;3.85;;;2.28;;
13208;SDS011;6669;42.678;23.332;2023-04-01T15:20:56;5.15;;;1.90;;
13208;SDS011;6669;42.678;23.332;2023-04-01T15:23:46;4.13;;;1.95;;
13208;SDS011;6669;42.678;23.332;2023-04-01T15:26:47;2.50;;;1.67;;
13208;SDS011;6669;42.678;23.332;2023-04-01T15:29:40;2.40;;;2.05;;
13208;SDS011;6669;42.678;23.332;2023-04-01T15:32:40;2.20;;;2.00;;
13208;SDS011;6669;42.678;23.332;2023-04-01T15:35:21;1.63;;;1.52;;
13208;SDS011;6669;42.678;23.332;2023-04-01T15:38:05;4.18;;;2.10;;
13208;SDS011;6669;42.678;23.332;2023-04-01T15:40:41;3.40;;;1.77;;
13208;SDS011;6669;42.678;23.332;2023-04-01T15:43:18;3.83;;;2.20;;
13208;SDS011;6669;42.678;23.332;2023-04-01T15:45:57;3.85;;;2.40;;
13208;SDS011;6669;42.678;23.332;2023-04-01T15:48:41;3.08;;;1.90;;
13208;SDS011;6669;42.678;23.332;2023-04-01T15:54:27;1.08;;;1.00;;
13208;SDS011;6669;42.678;23.332;2023-04-01T15:57:10;1.30;;;1.20;;
13208;SDS011;6669;42.678;23.332;2023-04-01T15:59:56;1.47;;;1.37;;
13208;SDS011;6669;42.678;23.332;2023-04-01T16:02:39;1.60;;;1.50;;
13208;SDS011;6669;42.678;23.332;2023-04-01T16:05:22;2.07;;;1.63;;
13208;SDS011;6669;42.678;23.332;2023-04-01T16:07:57;4.30;;;2.20;;
13208;SDS011;6669;42.678;23.332;2023-04-01T16:10:43;2.53;;;2.27;;
13208;SDS011;6669;42.678;23.332;2023-04-01T16:13:27;2.57;;;2.37;;
13208;SDS011;6669;42.678;23.332;2023-04-01T16:16:05;2.47;;;2.00;;
13208;SDS011;6669;42.678;23.332;2023-04-01T16:18:48;2.50;;;2.30;;
13208;SDS011;6669;42.678;23.332;2023-04-01T16:21:33;4.87;;;2.67;;
13208;SDS011;6669;42.678;23.332;2023-04-01T16:24:08;3.60;;;2.40;;
13208;SDS011;6669;42.678;23.332;2023-04-01T16:26:47;3.33;;;2.60;;
13208;SDS011;6669;42.678;23.332;2023-04-01T16:29:22;2.33;;;2.13;;
13208;SDS011;6669;42.678;23.332;2023-04-01T16:32:12;3.00;;;2.80;;
13208;SDS011;6669;42.678;23.332;2023-04-01T16:34:54;2.63;;;2.43;;
13208;SDS011;6669;42.678;23.332;2023-04-01T16:37:31;3.67;;;2.87;;
13208;SDS011;6669;42.678;23.332;2023-04-01T16:40:12;2.80;;;2.60;;
13208;SDS011;6669;42.678;23.332;2023-04-01T16:42:52;1.80;;;1.70;;
13208;SDS011;6669;42.678;23.332;2023-04-01T16:45:26;2.40;;;2.17;;
13208;SDS011;6669;42.678;23.332;2023-04-01T16:48:01;1.67;;;1.57;;
13208;SDS011;6669;42.678;23.332;2023-04-01T16:50:42;2.27;;;1.90;;
13208;SDS011;6669;42.678;23.332;2023-04-01T16:53:21;2.00;;;1.80;;
13208;SDS011;6669;42.678;23.332;2023-04-01T16:56:03;1.97;;;1.77;;
13208;SDS011;6669;42.678;23.332;2023-04-01T16:58:41;2.07;;;1.83;;
13208;SDS011;6669;42.678;23.332;2023-04-01T17:01:16;1.90;;;1.50;;
13208;SDS011;6669;42.678;23.332;2023-04-01T17:03:50;1.33;;;1.23;;
13208;SDS011;6669;42.678;23.332;2023-04-01T17:06:27;1.57;;;1.47;;
13208;SDS011;6669;42.678;23.332;2023-04-01T17:09:05;1.20;;;1.10;;
13208;SDS011;6669;42.678;23.332;2023-04-01T17:11:47;1.00;;;1.00;;
13208;SDS011;6669;42.678;23.332;2023-04-01T17:14:25;1.00;;;0.93;;